sensor_id;sensor_type;location;lat;lon;timestamp;temperature;humidity
1678;DHT22;6034;46.864;15.216;2023-05-07T06:17:38;16.50;99.90
1678;DHT22;6034;46.864;15.216;2023-05-07T06:20:06;15.90;99.90
1678;DHT22;6034;46.864;15.216;2023-05-07T06:22:33;16.40;99.90
1678;DHT22;6034;46.864;15.216;2023-05-07T06:25:00;16.40;99.90
1678;DHT22;6034;46.864;15.216;2023-05-07T06:27:27;16.50;99.90
1678;DHT22;6034;46.864;15.216;2023-05-07T06:29:54;16.70;99.90
1678;DHT22;6034;46.864;15.216;2023-05-07T06:32:22;16.50;99.90
1678;DHT22;6034;46.864;15.216;2023-05-07T06:34:51;16.80;99.90
1678;DHT22;6034;46.864;15.216;2023-05-07T06:37:18;16.60;99.90
1678;DHT22;6034;46.864;15.216;2023-05-07T06:39:45;16.80;99.90
1678;DHT22;6034;46.864;15.216;2023-05-07T06:42:12;16.30;99.90
1678;DHT22;6034;46.864;15.216;2023-05-07T06:44:39;16.60;99.90
1678;DHT22;6034;46.864;15.216;2023-05-07T06:47:07;16.70;99.90
1678;DHT22;6034;46.864;15.216;2023-05-07T06:49:34;16.40;99.90
1678;DHT22;6034;46.864;15.216;2023-05-07T06:52:02;16.60;99.90
1678;DHT22;6034;46.864;15.216;2023-05-07T06:54:29;16.60;99.90
1678;DHT22;6034;46.864;15.216;2023-05-07T06:56:56;16.80;99.90
1678;DHT22;6034;46.864;15.216;2023-05-07T06:59:23;17.00;99.90
1678;DHT22;6034;46.864;15.216;2023-05-07T07:01:50;17.30;99.90
1678;DHT22;6034;46.864;15.216;2023-05-07T07:04:17;17.60;99.90
1678;DHT22;6034;46.864;15.216;2023-05-07T07:06:45;17.40;99.90
1678;DHT22;6034;46.864;15.216;2023-05-07T07:09:13;17.30;99.90
1678;DHT22;6034;46.864;15.216;2023-05-07T07:11:40;17.60;99.90
1678;DHT22;6034;46.864;15.216;2023-05-07T07:14:07;17.70;99.90
1678;DHT22;6034;46.864;15.216;2023-05-07T07:16:35;18.00;99.90
1678;DHT22;6034;46.864;15.216;2023-05-07T07:19:02;17.90;99.90
1678;DHT22;6034;46.864;15.216;2023-05-07T07:21:29;17.40;99.90
1678;DHT22;6034;46.864;15.216;2023-05-07T07:23:57;17.20;99.90
1678;DHT22;6034;46.864;15.216;2023-05-07T07:26:25;17.60;99.90
1678;DHT22;6034;46.864;15.216;2023-05-07T07:28:52;17.70;99.90
1678;DHT22;6034;46.864;15.216;2023-05-07T07:31:19;17.40;99.90
1678;DHT22;6034;46.864;15.216;2023-05-07T07:33:46;17.90;99.90
1678;DHT22;6034;46.864;15.216;2023-05-07T07:36:15;18.20;99.90
1678;DHT22;6034;46.864;15.216;2023-05-07T07:38:42;18.50;99.90
1678;DHT22;6034;46.864;15.216;2023-05-07T07:41:09;18.30;99.90
1678;DHT22;6034;46.864;15.216;2023-05-07T07:43:38;18.30;99.90
1678;DHT22;6034;46.864;15.216;2023-05-07T07:46:05;18.40;99.90
1678;DHT22;6034;46.864;15.216;2023-05-07T07:48:32;18.50;99.90
1678;DHT22;6034;46.864;15.216;2023-05-07T07:50:59;18.50;99.90
1678;DHT22;6034;46.864;15.216;2023-05-07T07:53:26;18.00;99.90
1678;DHT22;6034;46.864;15.216;2023-05-07T07:55:53;18.20;99.90
1678;DHT22;6034;46.864;15.216;2023-05-07T07:58:20;17.80;99.90
1678;DHT22;6034;46.864;15.216;2023-05-07T08:00:48;18.00;99.90
1678;DHT22;6034;46.864;15.216;2023-05-07T08:03:16;18.50;99.90
1678;DHT22;6034;46.864;15.216;2023-05-07T08:05:43;18.90;99.90
1678;DHT22;6034;46.864;15.216;2023-05-07T08:08:10;18.40;99.90
1678;DHT22;6034;46.864;15.216;2023-05-07T08:10:37;18.30;99.90
1678;DHT22;6034;46.864;15.216;2023-05-07T08:13:04;18.40;99.90
1678;DHT22;6034;46.864;15.216;2023-05-07T08:15:32;18.30;99.90
1678;DHT22;6034;46.864;15.216;2023-05-07T08:18:00;18.50;99.90
1678;DHT22;6034;46.864;15.216;2023-05-07T08:20:28;19.00;99.90
1678;DHT22;6034;46.864;15.216;2023-05-07T08:22:55;18.70;99.90
1678;DHT22;6034;46.864;15.216;2023-05-07T08:25:22;18.70;99.90
1678;DHT22;6034;46.864;15.216;2023-05-07T08:27:49;18.70;99.90
1678;DHT22;6034;46.864;15.216;2023-05-07T08:30:15;18.90;99.90
1678;DHT22;6034;46.864;15.216;2023-05-07T08:32:42;18.90;99.90
1678;DHT22;6034;46.864;15.216;2023-05-07T08:35:11;18.80;99.90
1678;DHT22;6034;46.864;15.216;2023-05-07T08:37:38;18.80;99.90
1678;DHT22;6034;46.864;15.216;2023-05-07T08:40:05;18.70;99.90
1678;DHT22;6034;46.864;15.216;2023-05-07T08:42:33;18.70;99.90
1678;DHT22;6034;46.864;15.216;2023-05-07T08:45:02;19.00;99.90
1678;DHT22;6034;46.864;15.216;2023-05-07T08:47:33;19.20;99.90
1678;DHT22;6034;46.864;15.216;2023-05-07T08:50:01;19.70;99.90
1678;DHT22;6034;46.864;15.216;2023-05-07T08:52:30;19.70;99.90
1678;DHT22;6034;46.864;15.216;2023-05-07T08:54:57;19.80;99.90
1678;DHT22;6034;46.864;15.216;2023-05-07T08:57:24;19.60;99.90
1678;DHT22;6034;46.864;15.216;2023-05-07T08:59:51;19.90;99.90
1678;DHT22;6034;46.864;15.216;2023-05-07T09:02:18;19.70;99.90
1678;DHT22;6034;46.864;15.216;2023-05-07T09:04:45;19.40;99.90
1678;DHT22;6034;46.864;15.216;2023-05-07T09:07:12;19.60;99.90
1678;DHT22;6034;46.864;15.216;2023-05-07T09:09:41;18.90;99.90
1678;DHT22;6034;46.864;15.216;2023-05-07T09:12:08;19.00;99.90
1678;DHT22;6034;46.864;15.216;2023-05-07T09:14:35;19.00;99.90
1678;DHT22;6034;46.864;15.216;2023-05-07T09:17:02;19.20;99.90
1678;DHT22;6034;46.864;15.216;2023-05-07T09:19:29;19.40;99.90
1678;DHT22;6034;46.864;15.216;2023-05-07T09:21:59;19.70;99.90
1678;DHT22;6034;46.864;15.216;2023-05-07T09:24:27;19.90;99.90
1678;DHT22;6034;46.864;15.216;2023-05-07T09:27:01;19.20;99.90
1678;DHT22;6034;46.864;15.216;2023-05-07T09:29:28;19.20;99.90
1678;DHT22;6034;46.864;15.216;2023-05-07T09:31:55;19.60;99.90
1678;DHT22;6034;46.864;15.216;2023-05-07T09:34:22;19.20;99.90
1678;DHT22;6034;46.864;15.216;2023-05-07T09:36:49;18.70;99.90
1678;DHT22;6034;46.864;15.216;2023-05-07T09:39:16;18.80;99.90
1678;DHT22;6034;46.864;15.216;2023-05-07T09:41:44;19.30;99.90
1678;DHT22;6034;46.864;15.216;2023-05-07T09:44:12;19.70;99.90
1678;DHT22;6034;46.864;15.216;2023-05-07T09:46:41;19.60;99.90
1678;DHT22;6034;46.864;15.216;2023-05-07T09:49:10;19.70;99.90
1678;DHT22;6034;46.864;15.216;2023-05-07T09:51:41;19.90;99.90
1678;DHT22;6034;46.864;15.216;2023-05-07T09:54:09;20.00;99.90
1678;DHT22;6034;46.864;15.216;2023-05-07T09:56:37;19.90;99.90
1678;DHT22;6034;46.864;15.216;2023-05-07T09:59:07;19.90;99.90
1678;DHT22;6034;46.864;15.216;2023-05-07T10:01:37;19.90;99.90
1678;DHT22;6034;46.864;15.216;2023-05-07T10:04:04;20.20;99.90
1678;DHT22;6034;46.864;15.216;2023-05-07T10:06:34;20.70;99.90
1678;DHT22;6034;46.864;15.216;2023-05-07T10:09:01;20.60;99.90
1678;DHT22;6034;46.864;15.216;2023-05-07T10:11:28;20.50;99.90
1678;DHT22;6034;46.864;15.216;2023-05-07T10:13:55;20.60;99.90
1678;DHT22;6034;46.864;15.216;2023-05-07T10:16:22;20.60;99.90
1678;DHT22;6034;46.864;15.216;2023-05-07T10:18:51;20.70;99.90
1678;DHT22;6034;46.864;15.216;2023-05-07T10:21:19;20.60;99.90
1678;DHT22;6034;46.864;15.216;2023-05-07T10:23:48;20.60;99.90
1678;DHT22;6034;46.864;15.216;2023-05-07T10:26:16;20.70;99.90
1678;DHT22;6034;46.864;15.216;2023-05-07T10:28:44;20.30;99.90
1678;DHT22;6034;46.864;15.216;2023-05-07T10:31:20;20.00;99.90
1678;DHT22;6034;46.864;15.216;2023-05-07T10:33:49;19.90;99.90
1678;DHT22;6034;46.864;15.216;2023-05-07T10:36:19;20.20;99.90
1678;DHT22;6034;46.864;15.216;2023-05-07T10:38:47;20.50;99.90
1678;DHT22;6034;46.864;15.216;2023-05-07T10:41:14;20.00;99.90
1678;DHT22;6034;46.864;15.216;2023-05-07T10:43:43;20.20;99.90
1678;DHT22;6034;46.864;15.216;2023-05-07T10:46:10;20.40;99.90
1678;DHT22;6034;46.864;15.216;2023-05-07T10:51:21;20.70;99.90
1678;DHT22;6034;46.864;15.216;2023-05-07T10:53:52;20.60;99.90
1678;DHT22;6034;46.864;15.216;2023-05-07T10:56:42;20.60;99.90
1678;DHT22;6034;46.864;15.216;2023-05-07T11:01:57;20.90;99.90
1678;DHT22;6034;46.864;15.216;2023-05-07T11:04:24;20.30;99.90
1678;DHT22;6034;46.864;15.216;2023-05-07T11:09:58;20.40;99.90
1678;DHT22;6034;46.864;15.216;2023-05-07T11:15:12;20.10;99.90
1678;DHT22;6034;46.864;15.216;2023-05-07T11:17:52;20.00;99.90
1678;DHT22;6034;46.864;15.216;2023-05-07T11:20:19;19.90;99.90
1678;DHT22;6034;46.864;15.216;2023-05-07T11:22:47;20.10;99.90
1678;DHT22;6034;46.864;15.216;2023-05-07T11:25:18;20.20;99.90
1678;DHT22;6034;46.864;15.216;2023-05-07T11:27:45;20.50;99.90
1678;DHT22;6034;46.864;15.216;2023-05-07T11:30:16;20.60;99.90
1678;DHT22;6034;46.864;15.216;2023-05-07T11:32:46;20.70;99.90
1678;DHT22;6034;46.864;15.216;2023-05-07T11:35:13;20.70;99.90
1678;DHT22;6034;46.864;15.216;2023-05-07T11:37:42;20.60;99.90
1678;DHT22;6034;46.864;15.216;2023-05-07T11:40:11;20.70;99.90
1678;DHT22;6034;46.864;15.216;2023-05-07T11:42:41;20.90;99.90
1678;DHT22;6034;46.864;15.216;2023-05-07T11:45:08;20.80;99.90
1678;DHT22;6034;46.864;15.216;2023-05-07T11:47:35;20.80;99.90
1678;DHT22;6034;46.864;15.216;2023-05-07T11:50:04;20.40;99.90
1678;DHT22;6034;46.864;15.216;2023-05-07T11:52:31;20.30;99.90
1678;DHT22;6034;46.864;15.216;2023-05-07T11:54:59;20.40;99.90
1678;DHT22;6034;46.864;15.216;2023-05-07T11:57:27;20.00;99.90
1678;DHT22;6034;46.864;15.216;2023-05-07T11:59:56;19.60;99.90
1678;DHT22;6034;46.864;15.216;2023-05-07T12:02:24;20.30;99.90
1678;DHT22;6034;46.864;15.216;2023-05-07T12:04:51;20.60;99.90
1678;DHT22;6034;46.864;15.216;2023-05-07T12:07:18;20.80;99.90
1678;DHT22;6034;46.864;15.216;2023-05-07T12:09:45;20.90;99.90
1678;DHT22;6034;46.864;15.216;2023-05-07T12:12:13;20.90;99.90
1678;DHT22;6034;46.864;15.216;2023-05-07T12:14:41;21.20;99.90
1678;DHT22;6034;46.864;15.216;2023-05-07T12:17:11;21.60;99.90
1678;DHT22;6034;46.864;15.216;2023-05-07T14:32:32;16.60;99.90
1678;DHT22;6034;46.864;15.216;2023-05-07T14:34:59;16.50;99.90
1678;DHT22;6034;46.864;15.216;2023-05-07T14:37:26;16.60;99.90
1678;DHT22;6034;46.864;15.216;2023-05-07T14:39:53;16.80;99.90
1678;DHT22;6034;46.864;15.216;2023-05-07T14:42:20;16.50;99.90
1678;DHT22;6034;46.864;15.216;2023-05-07T14:44:47;16.50;99.90
1678;DHT22;6034;46.864;15.216;2023-05-07T14:47:15;16.70;99.90
1678;DHT22;6034;46.864;15.216;2023-05-07T14:49:44;16.90;99.90
1678;DHT22;6034;46.864;15.216;2023-05-07T14:52:11;16.80;99.90
1678;DHT22;6034;46.864;15.216;2023-05-07T14:54:38;17.10;99.90
1678;DHT22;6034;46.864;15.216;2023-05-07T14:57:05;17.10;99.90
1678;DHT22;6034;46.864;15.216;2023-05-07T14:59:32;17.20;99.90
1678;DHT22;6034;46.864;15.216;2023-05-07T15:01:59;17.00;99.90
1678;DHT22;6034;46.864;15.216;2023-05-07T15:04:26;17.00;99.90
1678;DHT22;6034;46.864;15.216;2023-05-07T15:06:55;16.80;99.90
1678;DHT22;6034;46.864;15.216;2023-05-07T15:09:21;16.60;99.90
1678;DHT22;6034;46.864;15.216;2023-05-07T15:11:48;16.50;99.90
1678;DHT22;6034;46.864;15.216;2023-05-07T15:14:16;16.40;99.90
1678;DHT22;6034;46.864;15.216;2023-05-07T15:16:43;16.40;99.90
1678;DHT22;6034;46.864;15.216;2023-05-07T15:19:10;16.30;99.90
1678;DHT22;6034;46.864;15.216;2023-05-07T15:21:37;16.30;99.90
1678;DHT22;6034;46.864;15.216;2023-05-07T15:24:06;16.30;99.90
1678;DHT22;6034;46.864;15.216;2023-05-07T15:26:33;16.30;99.90
1678;DHT22;6034;46.864;15.216;2023-05-07T15:29:00;16.20;99.90
1678;DHT22;6034;46.864;15.216;2023-05-07T15:31:28;16.30;99.90
1678;DHT22;6034;46.864;15.216;2023-05-07T15:33:55;16.30;99.90
1678;DHT22;6034;46.864;15.216;2023-05-07T15:36:22;16.20;99.90
1678;DHT22;6034;46.864;15.216;2023-05-07T15:38:50;16.30;99.90
1678;DHT22;6034;46.864;15.216;2023-05-07T15:41:18;16.40;99.90
1678;DHT22;6034;46.864;15.216;2023-05-07T15:43:47;16.40;99.90
1678;DHT22;6034;46.864;15.216;2023-05-07T15:46:17;16.20;99.90
1678;DHT22;6034;46.864;15.216;2023-05-07T15:48:44;16.00;99.90
1678;DHT22;6034;46.864;15.216;2023-05-07T15:51:11;16.10;99.90
1678;DHT22;6034;46.864;15.216;2023-05-07T15:53:38;16.00;99.90
1678;DHT22;6034;46.864;15.216;2023-05-07T15:56:05;15.90;99.90
1678;DHT22;6034;46.864;15.216;2023-05-07T15:58:34;15.90;99.90
1678;DHT22;6034;46.864;15.216;2023-05-07T16:01:01;16.00;99.90
1678;DHT22;6034;46.864;15.216;2023-05-07T16:03:29;15.90;99.90
1678;DHT22;6034;46.864;15.216;2023-05-07T16:05:56;16.20;99.90
1678;DHT22;6034;46.864;15.216;2023-05-07T16:08:25;16.30;99.90
1678;DHT22;6034;46.864;15.216;2023-05-07T16:10:53;16.20;99.90
1678;DHT22;6034;46.864;15.216;2023-05-07T16:13:21;16.40;99.90
1678;DHT22;6034;46.864;15.216;2023-05-07T16:15:51;16.30;99.90
1678;DHT22;6034;46.864;15.216;2023-05-07T16:18:23;16.30;99.90
1678;DHT22;6034;46.864;15.216;2023-05-07T16:20:55;16.40;99.90
1678;DHT22;6034;46.864;15.216;2023-05-07T16:23:25;16.40;99.90
1678;DHT22;6034;46.864;15.216;2023-05-07T16:25:53;16.50;99.90
1678;DHT22;6034;46.864;15.216;2023-05-07T16:28:20;16.40;99.90
1678;DHT22;6034;46.864;15.216;2023-05-07T16:30:48;16.40;99.90
1678;DHT22;6034;46.864;15.216;2023-05-07T16:33:19;16.40;99.90
1678;DHT22;6034;46.864;15.216;2023-05-07T16:35:50;16.50;99.90
1678;DHT22;6034;46.864;15.216;2023-05-07T16:38:17;16.40;99.90
1678;DHT22;6034;46.864;15.216;2023-05-07T16:40:46;16.30;99.90
1678;DHT22;6034;46.864;15.216;2023-05-07T16:43:15;16.20;99.90
1678;DHT22;6034;46.864;15.216;2023-05-07T16:45:43;16.00;99.90
1678;DHT22;6034;46.864;15.216;2023-05-07T16:48:11;16.00;99.90
1678;DHT22;6034;46.864;15.216;2023-05-07T16:50:40;16.20;99.90
1678;DHT22;6034;46.864;15.216;2023-05-07T16:53:09;16.20;99.90
1678;DHT22;6034;46.864;15.216;2023-05-07T16:55:37;16.10;99.90
1678;DHT22;6034;46.864;15.216;2023-05-07T16:58:04;16.10;99.90
1678;DHT22;6034;46.864;15.216;2023-05-07T17:00:31;16.10;99.90
1678;DHT22;6034;46.864;15.216;2023-05-07T17:03:00;16.00;99.90
1678;DHT22;6034;46.864;15.216;2023-05-07T17:05:30;16.10;99.90
1678;DHT22;6034;46.864;15.216;2023-05-07T17:07:59;16.10;99.90
1678;DHT22;6034;46.864;15.216;2023-05-07T17:10:27;16.20;99.90
1678;DHT22;6034;46.864;15.216;2023-05-07T17:12:53;16.20;99.90
1678;DHT22;6034;46.864;15.216;2023-05-07T17:15:20;16.10;99.90
1678;DHT22;6034;46.864;15.216;2023-05-07T17:17:48;16.10;99.90
1678;DHT22;6034;46.864;15.216;2023-05-07T17:20:16;16.20;99.90
1678;DHT22;6034;46.864;15.216;2023-05-07T17:22:43;16.20;99.90
1678;DHT22;6034;46.864;15.216;2023-05-07T17:25:12;15.90;99.90
1678;DHT22;6034;46.864;15.216;2023-05-07T17:27:39;15.90;99.90
1678;DHT22;6034;46.864;15.216;2023-05-07T17:30:07;15.80;99.90
1678;DHT22;6034;46.864;15.216;2023-05-07T17:32:36;15.70;99.90
1678;DHT22;6034;46.864;15.216;2023-05-07T17:35:05;15.80;99.90
1678;DHT22;6034;46.864;15.216;2023-05-07T17:37:32;15.80;99.90
1678;DHT22;6034;46.864;15.216;2023-05-07T17:40:00;15.80;99.90
1678;DHT22;6034;46.864;15.216;2023-05-07T17:42:29;14.50;99.90
1678;DHT22;6034;46.864;15.216;2023-05-07T17:44:57;15.90;99.90
1678;DHT22;6034;46.864;15.216;2023-05-07T17:47:24;15.90;99.90
1678;DHT22;6034;46.864;15.216;2023-05-07T17:49:51;15.90;99.90
1678;DHT22;6034;46.864;15.216;2023-05-07T17:52:18;15.90;99.90
1678;DHT22;6034;46.864;15.216;2023-05-07T17:54:45;15.90;99.90
1678;DHT22;6034;46.864;15.216;2023-05-07T17:57:12;15.90;99.90
1678;DHT22;6034;46.864;15.216;2023-05-07T17:59:46;16.00;99.90
1678;DHT22;6034;46.864;15.216;2023-05-07T18:02:13;15.90;99.90
1678;DHT22;6034;46.864;15.216;2023-05-07T18:04:40;15.90;99.90
1678;DHT22;6034;46.864;15.216;2023-05-07T18:07:08;15.90;99.90
1678;DHT22;6034;46.864;15.216;2023-05-07T18:09:35;15.90;99.90
1678;DHT22;6034;46.864;15.216;2023-05-07T18:12:02;15.80;99.90
1678;DHT22;6034;46.864;15.216;2023-05-07T18:14:30;15.90;99.90
1678;DHT22;6034;46.864;15.216;2023-05-07T18:16:59;15.90;99.90
1678;DHT22;6034;46.864;15.216;2023-05-07T18:19:27;15.90;99.90
1678;DHT22;6034;46.864;15.216;2023-05-07T18:21:54;15.90;99.90
1678;DHT22;6034;46.864;15.216;2023-05-07T18:24:22;15.90;99.90
1678;DHT22;6034;46.864;15.216;2023-05-07T18:26:50;15.80;99.90
1678;DHT22;6034;46.864;15.216;2023-05-07T18:42:57;16.70;99.90
1678;DHT22;6034;46.864;15.216;2023-05-07T18:45:32;15.70;99.90
1678;DHT22;6034;46.864;15.216;2023-05-07T18:48:04;15.70;99.90
1678;DHT22;6034;46.864;15.216;2023-05-07T18:50:41;15.70;99.90
1678;DHT22;6034;46.864;15.216;2023-05-07T18:53:13;15.70;99.90
1678;DHT22;6034;46.864;15.216;2023-05-07T18:55:48;15.60;99.90
1678;DHT22;6034;46.864;15.216;2023-05-07T18:58:23;15.50;99.90
1678;DHT22;6034;46.864;15.216;2023-05-07T19:00:54;15.40;99.90
1678;DHT22;6034;46.864;15.216;2023-05-07T19:03:28;15.50;99.90
1678;DHT22;6034;46.864;15.216;2023-05-07T19:05:59;15.50;99.90
1678;DHT22;6034;46.864;15.216;2023-05-07T19:08:29;15.50;99.90
1678;DHT22;6034;46.864;15.216;2023-05-07T19:10:57;15.50;99.90
1678;DHT22;6034;46.864;15.216;2023-05-07T19:13:29;15.40;99.90
1678;DHT22;6034;46.864;15.216;2023-05-07T19:15:58;15.30;99.90
1678;DHT22;6034;46.864;15.216;2023-05-07T19:18:25;15.40;99.90
1678;DHT22;6034;46.864;15.216;2023-05-07T19:20:54;15.40;99.90
1678;DHT22;6034;46.864;15.216;2023-05-07T19:23:22;15.30;99.90
1678;DHT22;6034;46.864;15.216;2023-05-07T19:25:51;15.30;99.90
1678;DHT22;6034;46.864;15.216;2023-05-07T19:28:23;15.30;99.90
1678;DHT22;6034;46.864;15.216;2023-05-07T19:30:53;15.20;99.90
1678;DHT22;6034;46.864;15.216;2023-05-07T19:33:21;15.10;99.90
1678;DHT22;6034;46.864;15.216;2023-05-07T19:35:48;15.20;99.90
1678;DHT22;6034;46.864;15.216;2023-05-07T19:38:18;15.30;99.90
1678;DHT22;6034;46.864;15.216;2023-05-07T19:40:45;15.30;99.90
1678;DHT22;6034;46.864;15.216;2023-05-07T19:43:13;15.20;99.90
1678;DHT22;6034;46.864;15.216;2023-05-07T19:45:41;15.30;99.90
1678;DHT22;6034;46.864;15.216;2023-05-07T19:48:13;15.30;99.90
1678;DHT22;6034;46.864;15.216;2023-05-07T19:50:41;15.30;99.90
1678;DHT22;6034;46.864;15.216;2023-05-07T19:53:08;15.30;99.90
1678;DHT22;6034;46.864;15.216;2023-05-07T19:55:35;15.30;99.90
1678;DHT22;6034;46.864;15.216;2023-05-07T19:58:02;15.30;99.90
1678;DHT22;6034;46.864;15.216;2023-05-07T20:00:30;15.30;99.90
1678;DHT22;6034;46.864;15.216;2023-05-07T20:02:58;15.30;99.90
1678;DHT22;6034;46.864;15.216;2023-05-07T20:05:26;15.30;99.90
1678;DHT22;6034;46.864;15.216;2023-05-07T20:07:54;15.30;99.90
1678;DHT22;6034;46.864;15.216;2023-05-07T20:10:21;15.30;99.90
1678;DHT22;6034;46.864;15.216;2023-05-07T20:15:24;15.30;99.90
1678;DHT22;6034;46.864;15.216;2023-05-07T20:17:51;15.30;99.90
1678;DHT22;6034;46.864;15.216;2023-05-07T20:20:18;15.30;99.90
1678;DHT22;6034;46.864;15.216;2023-05-07T20:22:47;15.30;99.90
1678;DHT22;6034;46.864;15.216;2023-05-07T20:25:17;15.30;99.90
1678;DHT22;6034;46.864;15.216;2023-05-07T20:27:44;15.20;99.90
1678;DHT22;6034;46.864;15.216;2023-05-07T20:30:11;15.20;99.90
1678;DHT22;6034;46.864;15.216;2023-05-07T20:32:38;15.30;99.90
1678;DHT22;6034;46.864;15.216;2023-05-07T20:35:05;15.20;99.90
1678;DHT22;6034;46.864;15.216;2023-05-07T20:37:32;15.10;99.90
1678;DHT22;6034;46.864;15.216;2023-05-07T20:40:02;15.20;99.90
1678;DHT22;6034;46.864;15.216;2023-05-07T20:42:29;15.20;99.90
1678;DHT22;6034;46.864;15.216;2023-05-07T20:44:56;15.20;99.90
1678;DHT22;6034;46.864;15.216;2023-05-07T20:47:23;15.20;99.90
1678;DHT22;6034;46.864;15.216;2023-05-07T20:49:50;15.20;99.90
1678;DHT22;6034;46.864;15.216;2023-05-07T20:52:17;15.20;99.90
1678;DHT22;6034;46.864;15.216;2023-05-07T20:54:44;15.10;99.90
1678;DHT22;6034;46.864;15.216;2023-05-07T20:57:13;15.10;99.90
1678;DHT22;6034;46.864;15.216;2023-05-07T20:59:40;15.10;99.90
